EDT,Max TemperatureF,Mean TemperatureF,Min TemperatureF,Max Dew PointF,MeanDew PointF,Min DewpointF,Max Humidity, Mean Humidity, Min Humidity, Max Sea Level PressureIn, Mean Sea Level PressureIn, Min Sea Level PressureIn, Max VisibilityMiles, Mean VisibilityMiles, Min VisibilityMiles, Max Wind SpeedMPH, Mean Wind SpeedMPH, Max Gust SpeedMPH,PrecipitationIn, CloudCover, Events, WindDirDegrees
2013-7-1,82,76,71,77,73,68,100,93,78,30.06,29.98,29.91,10,9,2,13,6,34,0.96,4,Rain-Thunderstorm,192
2013-7-2,84,78,71,77,73,72,100,94,78,30.12,30.07,29.99,10,9,4,17,4,23,0.23,2,Rain-Thunderstorm,109
2013-7-3,86,78,69,77,73,70,100,89,70,30.16,30.11,30.07,10,9,1,14,3,20,0.69,2,Rain-Thunderstorm,135
2013-7-4,86,78,71,77,73,72,100,87,66,30.18,30.13,30.09,10,9,2,14,4,25,0.55,2,Rain-Thunderstorm,128
2013-7-5,84,78,71,75,73,72,100,88,70,30.17,30.13,30.08,10,9,5,16,4,26,0.04,2,Rain-Thunderstorm,125
2013-7-6,87,79,71,73,72,70,100,81,58,30.14,30.10,30.06,10,9,5,15,4,20,0.00,2,,115
2013-7-7,87,79,71,77,72,72,100,83,58,30.14,30.10,30.05,10,9,3,13,4,22,0.07,2,Rain,95
2013-7-8,87,79,71,75,72,68,100,82,55,30.17,30.14,30.09,10,9,5,13,3,21,0.00,1,,86
2013-7-9,82,76,71,73,72,70,100,87,66,30.19,30.13,30.08,10,10,5,12,3,16,0.02,2,Rain-Thunderstorm,58
2013-7-10,86,78,71,73,72,68,100,87,58,30.11,30.07,30.02,10,10,4,10,1,20,0.01,2,Rain-Thunderstorm,127
2013-7-11,87,79,71,75,72,70,100,83,58,30.07,30.01,29.96,10,10,7,17,3,26,0.00,1,Rain-Thunderstorm,185
2013-7-12,87,78,69,75,71,68,100,83,58,29.99,29.96,29.92,10,10,7,20,2,26,0.02,1,Rain-Thunderstorm,243
2013-7-13,86,78,69,75,72,70,100,91,62,30.03,29.98,29.94,10,10,5,18,2,25,0.16,2,Rain-Thunderstorm,168
2013-7-14,82,76,69,75,71,70,100,94,74,30.11,30.06,30.00,10,9,1,17,4,24,2.01,4,Rain-Thunderstorm,141
2013-7-15,86,78,69,75,71,70,100,86,62,30.13,30.09,30.04,10,9,4,13,2,16,0.00,2,Rain-Thunderstorm,76
2013-7-16,84,76,69,72,71,70,100,93,66,30.19,30.13,30.09,10,10,2,13,3,20,0.34,2,Rain-Thunderstorm,79
2013-7-17,82,76,69,75,72,68,100,92,74,30.16,30.13,30.08,10,10,2,12,4,21,0.26,1,Rain-Thunderstorm,77
2013-7-18,84,76,69,73,72,70,100,91,66,30.14,30.11,30.07,10,10,4,14,2,23,0.26,2,Rain-Thunderstorm,124
2013-7-19,87,78,69,77,72,70,100,86,66,30.15,30.11,30.05,10,10,5,14,3,20,0.00,1,Rain-Thunderstorm,146
2013-7-20,87,80,73,77,73,68,100,90,62,30.14,30.09,30.04,10,9,5,12,2,18,0.03,2,Rain-Thunderstorm,153
2013-7-21,86,78,69,79,73,68,100,92,66,30.16,30.12,30.05,10,9,1,24,2,32,1.63,3,Rain-Thunderstorm,188
2013-7-22,89,80,71,77,73,70,100,83,58,30.16,30.12,30.08,10,9,7,12,3,25,0.00,1,Rain-Thunderstorm,201
2013-7-23,89,80,71,77,73,70,100,81,52,30.13,30.06,29.99,10,10,7,13,2,17,0.00,3,,272
2013-7-24,89,80,71,73,72,70,100,79,52,30.05,29.97,29.92,10,9,5,17,4,23,0.00,1,,250
2013-7-25,87,79,71,75,73,72,100,83,58,30.03,29.98,29.92,10,10,3,14,6,22,0.27,1,Rain-Thunderstorm,259
2013-7-26,89,80,71,77,73,72,100,85,58,30.04,30.00,29.96,10,9,1,12,5,21,2.65,4,Rain-Thunderstorm,273
2013-7-27,87,80,73,77,74,72,100,89,62,30.01,29.98,29.94,10,8,0,14,1,22,0.11,2,Fog-Rain-Thunderstorm,242
2013-7-28,87,79,71,75,73,70,100,84,58,30.09,30.02,29.96,10,9,3,14,2,22,0.58,2,Rain-Thunderstorm,176
2013-7-29,89,80,71,77,73,70,100,88,58,30.17,30.11,30.04,10,10,5,17,1,25,0.03,1,Rain-Thunderstorm,124
2013-7-30,87,80,73,77,74,72,100,88,66,30.18,30.15,30.11,10,8,0,18,1,26,1.86,1,Rain-Thunderstorm,86
2013-7-31,89,81,73,77,74,70,100,84,58,30.14,30.09,30.02,10,8,3,9,2,20,0.02,2,Rain,130